Kezdőlap
METAR-TAF:

METAR-TAF

Repülőterek :

Moroni, Comore-szigetek

földrajzi szélesség: 11-32S, földrajzi hosszúság: 043-16E, magasság: 29 m

METAR: hiányzik

Idő: 22:18 (19:18 UTC)

Előrejelzés

A jelentés 2 órával és 18 perccel ezelõtt készült, 17:00 UTC
Az előrejelzés 14-én 18 óra UTC és 15-én 24 óra UTC között érvényes
Kelet-délkeleti szél 5 kt
Látótávolság 10 km, vagy több
Kevés felhő 2000 lábon
15-én 05 óra UTC és 15-én 07 óra UTC között fokozatosan kialakuló
Dél-délnyugati szél 10 kt
15-én 14 óra UTC és 15-én 16 óra UTC között fokozatosan kialakuló
Kelet-délkeleti szél 4 kt

TAF: FMCH 141700Z 1418/1524 12005KT 9999 FEW020 BECMG 1505/1507 21010KT BECMG 1514/1516 11004KT

Meteorológiai megfigyelések és előrejelzések több, mint 4000 repülőtéren (METAR és TAF jelentéseket).

A térképen piros és sárga pontok jelzik az elérhető meteorológiai állomásokat.

Mozgassa az egeret a pont fölött, hogy megjelenjen az állomás neve.

Azután kattintson az időjárási megfigyelések és előrejelzések megtekintéséhez.

A térkép megváltoztatása: kattintson a fekete keresztel jelölt zöld gombra ráközelítéshez, a vonallal jelölt zöld gombra távolításhoz, vagy a zöld nyilakra a szomszédos térképek eléréséhez.


METAR-TAF: